Terminal Aerodrome Forecast
Issued by NWS

Home | Current Version | Previous Version | Text Only | Print | Product List | Glossary On
Versions: 1 2 3 4 5 6 7 8 9 10 11 12 13 14 15 16
000
FTUS46 KSEW 030500
TAFCLM
TAF
KCLM 030520Z 0306/0406 29006KT P6SM BKN007 OVC020
     FM031900 31005KT P6SM BKN025 BKN060
     FM032100 32007KT P6SM SCT030 BKN060=

USA.gov is the U.S. government's official web portal to all federal, state and local government web resources and services.